createdAt,value
2024-04-18T00:02:03.367Z,3.00
2024-04-18T00:04:33.498Z,3.40
2024-04-18T00:07:02.371Z,2.70
2024-04-18T00:09:29.983Z,2.60
2024-04-18T00:12:00.192Z,2.80
2024-04-18T00:14:27.836Z,3.20
2024-04-18T00:16:55.293Z,2.90
2024-04-18T00:19:22.843Z,2.80
2024-04-18T00:21:50.491Z,3.20
2024-04-18T00:24:18.408Z,3.30
2024-04-18T00:26:46.063Z,2.80
2024-04-18T00:29:16.122Z,3.50
2024-04-18T00:31:43.809Z,2.70
2024-04-18T00:34:11.418Z,2.90
2024-04-18T00:36:41.358Z,3.30
2024-04-18T00:39:12.056Z,3.20
2024-04-18T00:41:42.578Z,3.00
2024-04-18T00:44:11.474Z,2.90
2024-04-18T00:46:39.861Z,3.60
2024-04-18T00:49:08.872Z,3.40
2024-04-18T00:51:36.848Z,3.50
2024-04-18T00:54:04.863Z,3.60
2024-04-18T00:56:32.535Z,3.50
2024-04-18T00:59:06.047Z,3.40
2024-04-18T01:01:33.650Z,3.50
2024-04-18T01:04:01.402Z,3.20
2024-04-18T01:06:32.462Z,3.40
2024-04-18T01:09:04.319Z,3.30
2024-04-18T01:11:32.986Z,3.20
2024-04-18T01:14:10.539Z,3.60
2024-04-18T01:16:41.500Z,3.30
2024-04-18T01:19:13.027Z,3.40
2024-04-18T01:21:41.194Z,3.00
2024-04-18T01:24:12.314Z,3.20
2024-04-18T01:26:42.144Z,3.50
2024-04-18T01:29:11.070Z,4.80
2024-04-18T01:31:38.656Z,4.50
2024-04-18T01:34:06.312Z,4.90
2024-04-18T01:36:34.004Z,4.90
2024-04-18T01:39:01.664Z,4.50
2024-04-18T01:41:29.173Z,4.60
2024-04-18T01:43:56.699Z,5.10
2024-04-18T01:46:24.325Z,5.50
2024-04-18T01:48:52.451Z,5.20
2024-04-18T01:51:20.147Z,5.20
2024-04-18T01:53:50.696Z,4.50
2024-04-18T01:56:18.959Z,5.20
2024-04-18T01:58:47.246Z,4.80
2024-04-18T02:01:17.331Z,5.00
2024-04-18T02:03:45.057Z,5.10
2024-04-18T02:06:12.679Z,4.80
2024-04-18T02:08:42.897Z,5.20
2024-04-18T02:11:13.457Z,5.30
2024-04-18T02:13:41.331Z,5.20
2024-04-18T02:16:08.812Z,5.20
2024-04-18T02:18:36.275Z,5.20
2024-04-18T02:21:03.901Z,5.20
2024-04-18T02:23:35.098Z,5.30
2024-04-18T02:26:02.643Z,5.30
2024-04-18T02:28:30.661Z,5.10
2024-04-18T02:30:58.692Z,5.30
2024-04-18T02:33:26.323Z,5.80
2024-04-18T02:35:54.015Z,4.80
2024-04-18T02:38:21.737Z,5.30
2024-04-18T02:40:49.396Z,4.90
2024-04-18T02:43:19.705Z,5.90
2024-04-18T02:45:50.434Z,5.90
2024-04-18T02:48:18.394Z,5.60
2024-04-18T02:50:46.171Z,5.40
2024-04-18T02:53:13.774Z,5.70
2024-04-18T02:55:41.471Z,6.20
2024-04-18T02:58:12.193Z,5.30
2024-04-18T03:00:40.356Z,5.20
2024-04-18T03:03:08.038Z,5.30
2024-04-18T03:05:36.248Z,5.70
2024-04-18T03:08:04.022Z,5.40
2024-04-18T03:10:31.708Z,5.50
2024-04-18T03:12:59.404Z,5.70
2024-04-18T03:15:26.914Z,5.90
2024-04-18T03:17:55.379Z,6.10
2024-04-18T03:20:23.239Z,5.90
2024-04-18T03:22:50.910Z,5.70
2024-04-18T03:25:18.416Z,5.90
2024-04-18T03:27:46.067Z,6.00
2024-04-18T03:30:15.444Z,5.80
2024-04-18T03:32:43.058Z,6.30
2024-04-18T03:35:11.093Z,6.10
2024-04-18T03:37:39.055Z,6.40
2024-04-18T03:40:06.878Z,5.50
2024-04-18T03:42:34.818Z,6.30
2024-04-18T03:45:02.412Z,6.40
2024-04-18T03:47:30.041Z,5.80
2024-04-18T03:49:57.631Z,6.00
2024-04-18T03:52:25.553Z,6.10
2024-04-18T03:55:01.345Z,5.80
2024-04-18T03:57:32.933Z,6.00
2024-04-18T04:00:00.584Z,5.60
2024-04-18T04:02:28.716Z,5.40
2024-04-18T04:04:56.645Z,5.80
2024-04-18T04:07:24.854Z,6.50
2024-04-18T04:09:52.505Z,6.20
2024-04-18T04:12:22.812Z,6.50
2024-04-18T04:14:50.368Z,6.50
2024-04-18T04:17:18.023Z,7.30
2024-04-18T04:19:45.626Z,5.90
2024-04-18T04:22:22.746Z,6.20
2024-04-18T04:24:53.584Z,7.00
2024-04-18T04:27:21.085Z,6.40
2024-04-18T04:29:48.615Z,6.60
2024-04-18T04:32:20.898Z,6.80
2024-04-18T04:34:49.555Z,6.30
2024-04-18T04:37:17.341Z,6.60
2024-04-18T04:39:47.292Z,5.80
2024-04-18T04:42:17.901Z,5.70
2024-04-18T04:44:45.501Z,5.80
2024-04-18T04:47:14.062Z,5.60
2024-04-18T04:49:41.769Z,5.40
2024-04-18T04:52:09.554Z,5.60
2024-04-18T04:54:38.592Z,5.20
2024-04-18T04:57:06.216Z,5.10
2024-04-18T04:59:33.838Z,4.80
2024-04-18T05:02:01.705Z,5.20
2024-04-18T05:04:30.221Z,4.60
2024-04-18T05:06:57.846Z,4.50
2024-04-18T05:09:28.269Z,4.70
2024-04-18T05:12:01.342Z,4.50
2024-04-18T05:14:31.208Z,4.40
2024-04-18T05:16:58.842Z,5.90
2024-04-18T05:19:26.465Z,4.80
2024-04-18T05:21:54.308Z,5.00
2024-04-18T05:24:22.464Z,5.00
2024-04-18T05:26:50.063Z,4.80
2024-04-18T05:29:36.141Z,4.90
2024-04-18T05:32:04.020Z,4.80
2024-04-18T05:34:35.035Z,4.90
2024-04-18T05:37:03.194Z,5.30
2024-04-18T05:39:30.795Z,4.90
2024-04-18T05:41:58.358Z,4.90
2024-04-18T05:44:25.856Z,5.00
2024-04-18T05:46:53.452Z,5.00
2024-04-18T05:49:22.258Z,5.10
2024-04-18T05:51:50.499Z,4.80
2024-04-18T05:54:18.385Z,4.90
2024-04-18T05:56:45.996Z,5.70
2024-04-18T05:59:15.771Z,5.80
2024-04-18T06:01:43.231Z,5.90
2024-04-18T06:04:13.854Z,6.20
2024-04-18T06:06:41.410Z,6.00
2024-04-18T06:09:09.370Z,5.70
2024-04-18T06:11:39.825Z,7.10
2024-04-18T06:14:07.586Z,6.40
2024-04-18T06:16:36.093Z,6.40
2024-04-18T06:19:03.959Z,6.20
2024-04-18T06:21:34.174Z,6.30
2024-04-18T06:24:04.838Z,5.70
2024-04-18T06:26:32.567Z,5.20
2024-04-18T06:29:00.293Z,6.70
2024-04-18T06:31:27.995Z,4.90
2024-04-18T06:33:55.726Z,5.80
2024-04-18T06:36:23.432Z,4.80
2024-04-18T06:38:51.229Z,5.20
2024-04-18T06:41:18.954Z,5.60
2024-04-18T06:43:46.555Z,4.80
2024-04-18T06:46:14.079Z,6.30
2024-04-18T06:48:41.975Z,5.60
2024-04-18T06:51:10.174Z,5.60
2024-04-18T06:53:37.669Z,6.30
2024-04-18T06:56:05.946Z,5.90
2024-04-18T06:58:33.615Z,6.80
2024-04-18T07:01:01.386Z,6.60
2024-04-18T07:03:29.236Z,5.40
2024-04-18T07:05:59.724Z,5.40
2024-04-18T07:08:27.435Z,5.10
2024-04-18T07:10:55.215Z,5.10
2024-04-18T07:13:22.757Z,4.60
2024-04-18T07:15:50.391Z,5.00
2024-04-18T07:18:18.148Z,4.70
2024-04-18T07:20:45.741Z,3.90
2024-04-18T07:23:15.791Z,4.30
2024-04-18T07:25:46.097Z,3.70
2024-04-18T07:28:13.883Z,3.40
2024-04-18T07:30:41.420Z,3.10
2024-04-18T07:33:08.983Z,2.30
2024-04-18T07:35:36.724Z,2.70
2024-04-18T07:38:04.383Z,3.30
2024-04-18T07:40:32.134Z,3.50
2024-04-18T07:42:59.760Z,3.10
2024-04-18T07:45:27.371Z,2.80
2024-04-18T07:47:55.461Z,2.40
2024-04-18T07:50:23.052Z,2.70
2024-04-18T07:52:57.064Z,2.90
2024-04-18T07:55:31.782Z,2.40
2024-04-18T07:58:00.066Z,1.70
2024-04-18T08:00:28.794Z,1.30
2024-04-18T08:02:58.631Z,1.40
2024-04-18T08:05:31.306Z,1.90
2024-04-18T08:08:03.751Z,1.10
2024-04-18T08:10:42.158Z,1.00
2024-04-18T08:13:24.580Z,2.00
2024-04-18T08:18:25.162Z,1.50
2024-04-18T08:20:52.830Z,2.00
2024-04-18T08:23:21.772Z,2.00
2024-04-18T08:25:49.368Z,1.70
2024-04-18T08:28:17.927Z,1.70
2024-04-18T08:30:45.544Z,2.70
2024-04-18T08:33:13.341Z,2.20
2024-04-18T08:35:40.890Z,2.40
2024-04-18T08:38:09.603Z,3.30
2024-04-18T08:40:37.680Z,2.40
2024-04-18T08:43:05.968Z,2.30
2024-04-18T08:45:35.586Z,1.30
2024-04-18T08:48:05.697Z,1.10
2024-04-18T08:50:33.423Z,1.10
2024-04-18T08:53:01.024Z,1.70
2024-04-18T08:55:32.872Z,1.50
2024-04-18T08:58:02.937Z,1.30
2024-04-18T09:00:30.719Z,1.50
2024-04-18T09:03:02.873Z,1.40
2024-04-18T09:05:42.708Z,1.40
2024-04-18T09:08:13.215Z,1.60
2024-04-18T09:10:41.320Z,1.90
2024-04-18T09:13:14.887Z,1.40
2024-04-18T09:15:47.993Z,1.40
2024-04-18T09:18:15.922Z,2.00
2024-04-18T09:20:44.822Z,1.50
2024-04-18T09:23:15.194Z,1.50
2024-04-18T09:25:45.943Z,1.80
2024-04-18T09:28:18.490Z,1.50
2024-04-18T09:30:53.435Z,1.80
2024-04-18T09:33:34.401Z,1.80
2024-04-18T09:36:02.664Z,1.70
2024-04-18T09:38:34.576Z,2.00
2024-04-18T09:41:02.268Z,1.90
2024-04-18T09:43:42.451Z,1.70
2024-04-18T09:46:10.600Z,1.80
2024-04-18T09:48:41.223Z,1.40
2024-04-18T09:51:10.038Z,1.60
2024-04-18T09:53:38.119Z,2.00
2024-04-18T09:56:08.443Z,1.50
2024-04-18T09:58:39.072Z,1.70
2024-04-18T10:01:09.756Z,1.90
2024-04-18T10:03:37.762Z,1.40
2024-04-18T10:06:10.357Z,1.80
2024-04-18T10:08:40.204Z,2.10
2024-04-18T10:11:09.583Z,1.40
2024-04-18T10:13:37.657Z,1.40
2024-04-18T10:16:12.777Z,1.60
2024-04-18T10:18:42.494Z,2.00
2024-04-18T10:21:24.917Z,1.70
2024-04-18T10:24:05.916Z,1.70
2024-04-18T10:26:35.711Z,1.60
2024-04-18T10:29:21.774Z,2.60
2024-04-18T10:31:49.677Z,1.70
2024-04-18T10:34:17.293Z,1.80
2024-04-18T10:36:50.136Z,1.90
2024-04-18T10:39:31.124Z,1.60
2024-04-18T10:42:00.439Z,1.40
2024-04-18T10:44:30.954Z,1.60
2024-04-18T10:46:58.633Z,1.90
2024-04-18T10:49:26.480Z,1.60
2024-04-18T10:51:56.782Z,1.80
2024-04-18T10:54:24.259Z,1.30
2024-04-18T10:56:51.894Z,1.50
2024-04-18T10:59:19.677Z,1.70
2024-04-18T11:01:47.258Z,1.40
2024-04-18T11:04:15.603Z,1.40
2024-04-18T11:06:43.273Z,1.40
2024-04-18T11:09:11.188Z,1.50
2024-04-18T11:11:39.491Z,1.50
2024-04-18T11:14:09.470Z,2.00
2024-04-18T11:16:41.532Z,2.10
2024-04-18T11:19:10.085Z,1.90
2024-04-18T11:21:37.784Z,1.80
2024-04-18T11:24:05.448Z,2.20
2024-04-18T11:26:33.719Z,2.80
2024-04-18T11:29:01.940Z,1.80
2024-04-18T11:31:29.654Z,3.10
2024-04-18T11:33:57.905Z,1.80
2024-04-18T11:36:26.022Z,1.40
2024-04-18T11:38:58.375Z,1.40
2024-04-18T11:41:28.867Z,1.30
2024-04-18T11:43:56.638Z,1.20
2024-04-18T11:46:24.201Z,1.10
2024-04-18T11:48:51.876Z,1.40
2024-04-18T11:51:19.560Z,1.70
2024-04-18T11:53:47.109Z,1.60
2024-04-18T11:56:17.488Z,1.70
2024-04-18T11:58:45.050Z,1.40
2024-04-18T12:01:15.058Z,1.30
2024-04-18T12:03:42.953Z,1.60
2024-04-18T12:06:11.899Z,1.30
2024-04-18T12:08:39.462Z,1.00
2024-04-18T12:11:10.078Z,0.50
2024-04-18T12:13:42.829Z,0.70
2024-04-18T12:16:10.383Z,0.80
2024-04-18T12:18:38.174Z,0.60
2024-04-18T12:21:05.885Z,0.70
2024-04-18T12:23:34.005Z,0.50
2024-04-18T12:26:01.651Z,0.70
2024-04-18T12:28:29.497Z,1.20
2024-04-18T12:30:57.035Z,0.70
2024-04-18T12:33:24.715Z,0.50
2024-04-18T12:35:53.102Z,0.60
2024-04-18T12:38:20.812Z,0.50
2024-04-18T12:40:48.529Z,0.50
2024-04-18T12:43:16.479Z,0.70
2024-04-18T12:45:44.210Z,0.70
2024-04-18T12:48:12.049Z,0.80
2024-04-18T12:50:40.033Z,0.60
2024-04-18T12:53:07.659Z,0.90
2024-04-18T12:55:36.781Z,0.80
2024-04-18T12:58:04.818Z,0.90
2024-04-18T13:00:32.548Z,1.10
2024-04-18T13:03:01.444Z,0.70
2024-04-18T13:05:29.573Z,0.90
2024-04-18T13:07:57.167Z,1.00
2024-04-18T13:10:24.789Z,0.90
2024-04-18T13:12:55.810Z,0.80
2024-04-18T13:15:26.230Z,0.70
2024-04-18T13:17:53.903Z,1.00
2024-04-18T13:20:21.691Z,0.80
2024-04-18T13:22:49.291Z,0.90
2024-04-18T13:25:16.971Z,0.90
2024-04-18T13:27:46.021Z,1.20
2024-04-18T13:30:15.944Z,1.10
2024-04-18T13:32:45.511Z,1.40
2024-04-18T13:35:13.115Z,1.30
2024-04-18T13:37:44.658Z,1.30
2024-04-18T13:40:12.267Z,1.20
2024-04-18T13:42:41.975Z,1.40
2024-04-18T13:45:09.590Z,1.30
2024-04-18T13:47:37.304Z,2.30
2024-04-18T13:50:05.072Z,1.40
2024-04-18T13:52:32.689Z,1.70
2024-04-18T13:55:00.342Z,0.90
2024-04-18T13:57:28.144Z,1.50
2024-04-18T13:59:55.932Z,1.40
2024-04-18T14:02:23.513Z,1.20
2024-04-18T14:04:51.131Z,1.50
2024-04-18T14:07:18.585Z,1.50
2024-04-18T14:09:46.091Z,1.50
2024-04-18T14:12:16.136Z,1.30
2024-04-18T14:14:43.911Z,1.60
2024-04-18T14:17:30.206Z,1.90
2024-04-18T14:19:59.797Z,5.10
2024-04-18T14:22:27.575Z,5.90
2024-04-18T14:24:55.050Z,6.20
2024-04-18T14:27:24.102Z,6.00
2024-04-18T14:29:54.748Z,7.90
2024-04-18T14:32:22.327Z,6.80
2024-04-18T14:34:49.941Z,6.20
2024-04-18T14:37:17.956Z,6.20
2024-04-18T14:39:46.067Z,8.00
2024-04-18T14:42:15.846Z,5.60
2024-04-18T14:44:44.853Z,4.90
2024-04-18T14:47:12.383Z,6.30
2024-04-18T14:49:42.194Z,3.80
2024-04-18T14:52:09.706Z,3.50
2024-04-18T14:54:37.220Z,2.90
2024-04-18T14:57:04.917Z,3.90
2024-04-18T14:59:32.420Z,8.40
2024-04-18T15:02:00.663Z,7.00
2024-04-18T15:04:30.998Z,3.80
2024-04-18T15:06:59.215Z,5.50
2024-04-18T15:09:26.695Z,7.70
2024-04-18T15:11:55.861Z,3.60
2024-04-18T15:14:23.874Z,2.50
2024-04-18T15:16:51.372Z,2.30
2024-04-18T15:19:19.010Z,2.20
2024-04-18T15:21:47.121Z,2.00
2024-04-18T15:24:17.986Z,3.70
2024-04-18T15:26:45.524Z,6.00
2024-04-18T15:29:13.017Z,3.50
2024-04-18T15:31:41.717Z,2.70
2024-04-18T15:34:09.234Z,3.00
2024-04-18T15:36:36.886Z,3.20
2024-04-18T15:39:04.549Z,3.00
2024-04-18T15:41:36.267Z,3.50
2024-04-18T15:44:03.747Z,2.40
2024-04-18T15:46:31.264Z,1.80
2024-04-18T15:48:58.774Z,1.60
2024-04-18T15:51:26.313Z,3.50
2024-04-18T15:53:54.241Z,3.90
2024-04-18T15:56:25.851Z,3.70
2024-04-18T15:58:53.593Z,3.30
2024-04-18T16:01:24.472Z,3.20
2024-04-18T16:03:52.285Z,2.90
2024-04-18T16:06:22.953Z,2.30
2024-04-18T16:08:50.643Z,2.40
2024-04-18T16:11:18.442Z,1.80
2024-04-18T16:13:47.655Z,1.80
2024-04-18T16:16:15.309Z,2.30
2024-04-18T16:18:43.026Z,1.90
2024-04-18T16:21:11.816Z,2.50
2024-04-18T16:23:39.838Z,3.20
2024-04-18T16:26:07.338Z,3.20
2024-04-18T16:28:34.891Z,2.70
2024-04-18T16:31:02.426Z,2.10
2024-04-18T16:33:30.083Z,2.50
2024-04-18T16:35:57.590Z,4.80
2024-04-18T16:38:25.538Z,7.10
2024-04-18T16:40:53.128Z,4.70
2024-04-18T16:43:22.057Z,5.50
2024-04-18T16:45:54.023Z,4.50
2024-04-18T16:48:43.828Z,1.70
2024-04-18T16:51:11.509Z,1.70
2024-04-18T16:53:39.113Z,1.40
2024-04-18T16:56:06.905Z,1.80
2024-04-18T16:58:39.970Z,1.90
2024-04-18T17:01:52.513Z,1.50
2024-04-18T17:04:20.157Z,1.70
2024-04-18T17:06:48.989Z,1.70
2024-04-18T17:09:22.995Z,1.40
2024-04-18T17:11:57.795Z,1.50
2024-04-18T17:14:28.914Z,1.80
2024-04-18T17:16:56.511Z,1.60
2024-04-18T17:19:35.934Z,1.90
2024-04-18T17:22:07.907Z,1.80
2024-04-18T17:24:35.593Z,2.00
2024-04-18T17:27:03.469Z,1.80
2024-04-18T17:29:31.108Z,2.40
2024-04-18T17:31:58.874Z,2.00
2024-04-18T17:34:28.526Z,1.70
2024-04-18T17:36:56.634Z,2.30
2024-04-18T17:39:24.470Z,1.50
2024-04-18T17:41:52.923Z,1.90
2024-04-18T17:44:21.038Z,1.70
2024-04-18T17:46:48.513Z,1.80
2024-04-18T17:49:17.129Z,1.90
2024-04-18T17:51:45.042Z,1.40
2024-04-18T17:54:12.803Z,1.50
2024-04-18T17:56:40.345Z,1.30
2024-04-18T17:59:09.737Z,1.50
2024-04-18T18:01:39.783Z,1.70
2024-04-18T18:04:09.817Z,1.70
2024-04-18T18:06:38.216Z,2.30
2024-04-18T18:09:06.539Z,2.00
2024-04-18T18:11:34.158Z,1.90
2024-04-18T18:14:03.061Z,1.60
2024-04-18T18:16:31.748Z,2.20
2024-04-18T18:18:59.564Z,2.00
2024-04-18T18:21:27.477Z,2.00
2024-04-18T18:23:55.168Z,2.30
2024-04-18T18:26:22.779Z,1.80
2024-04-18T18:28:50.257Z,1.90
2024-04-18T18:31:17.926Z,1.80
2024-04-18T18:33:46.588Z,1.60
2024-04-18T18:36:15.058Z,1.40
2024-04-18T18:38:42.577Z,1.60
2024-04-18T18:41:12.903Z,1.50
2024-04-18T18:43:43.060Z,1.80
2024-04-18T18:46:13.807Z,1.70
2024-04-18T18:48:41.526Z,1.50
2024-04-18T18:51:13.305Z,1.50
2024-04-18T18:53:44.717Z,1.50
2024-04-18T18:56:12.317Z,1.60
2024-04-18T18:58:41.664Z,1.70
2024-04-18T19:01:09.487Z,2.10
2024-04-18T19:03:37.349Z,1.40
2024-04-18T19:06:05.238Z,1.20
2024-04-18T19:08:32.756Z,1.90
2024-04-18T19:11:02.010Z,1.80
2024-04-18T19:13:29.563Z,1.50
2024-04-18T19:15:58.541Z,1.90
2024-04-18T19:18:26.795Z,2.10
2024-04-18T19:20:54.778Z,2.20
2024-04-18T19:23:35.400Z,2.10
2024-04-18T19:26:03.139Z,2.40
2024-04-18T19:28:31.288Z,3.70
2024-04-18T19:30:59.181Z,3.30
2024-04-18T19:33:26.892Z,3.60
2024-04-18T19:35:54.522Z,3.20
2024-04-18T19:38:24.698Z,3.10
2024-04-18T19:40:52.530Z,3.70
2024-04-18T19:43:20.365Z,2.90
2024-04-18T19:45:57.160Z,3.40
2024-04-18T19:48:25.215Z,2.70
2024-04-18T19:50:52.857Z,3.30
2024-04-18T19:53:21.088Z,3.60
2024-04-18T19:55:50.365Z,4.70
2024-04-18T19:58:18.159Z,4.90
2024-04-18T20:00:45.999Z,5.10
2024-04-18T20:03:14.055Z,5.00
2024-04-18T20:05:41.925Z,5.30
2024-04-18T20:08:12.638Z,5.20
2024-04-18T20:10:43.346Z,5.40
2024-04-18T20:13:11.048Z,6.10
2024-04-18T20:15:38.604Z,5.80
2024-04-18T20:18:07.947Z,5.70
2024-04-18T20:20:38.632Z,5.40
2024-04-18T20:23:06.490Z,5.30
2024-04-18T20:25:34.109Z,4.40
2024-04-18T20:28:01.618Z,4.50
2024-04-18T20:30:29.155Z,5.80
2024-04-18T20:32:58.009Z,6.40
2024-04-18T20:35:25.614Z,7.00
2024-04-18T20:37:53.646Z,8.20
2024-04-18T20:40:21.196Z,8.70
2024-04-18T20:42:48.923Z,9.80
2024-04-18T20:45:16.633Z,10.70
2024-04-18T20:47:46.404Z,10.30
2024-04-18T20:50:14.030Z,9.10
2024-04-18T20:52:41.555Z,8.70
2024-04-18T20:55:09.324Z,7.70
2024-04-18T20:57:36.899Z,7.10
2024-04-18T21:00:04.555Z,7.20
2024-04-18T21:02:32.943Z,7.40
2024-04-18T21:05:00.660Z,7.00
2024-04-18T21:07:28.331Z,6.70
2024-04-18T21:09:55.939Z,7.50
2024-04-18T21:12:24.945Z,7.30
2024-04-18T21:14:52.414Z,6.70
2024-04-18T21:17:20.515Z,5.90
2024-04-18T21:19:48.087Z,5.30
2024-04-18T21:22:16.875Z,5.30
2024-04-18T21:24:44.511Z,5.20
2024-04-18T21:27:12.060Z,5.20
2024-04-18T21:29:39.543Z,4.70
2024-04-18T21:32:07.121Z,3.60
2024-04-18T21:34:34.596Z,4.20
2024-04-18T21:37:02.131Z,4.30
2024-04-18T21:39:29.648Z,4.30
2024-04-18T21:41:57.157Z,4.00
2024-04-18T21:44:24.751Z,3.50
2024-04-18T21:46:52.202Z,3.70
2024-04-18T21:49:19.696Z,4.20
2024-04-18T21:51:47.177Z,5.30
2024-04-18T21:54:15.443Z,3.80
2024-04-18T21:56:42.889Z,3.50
2024-04-18T21:59:10.286Z,3.40
2024-04-18T22:01:37.781Z,3.60
2024-04-18T22:04:05.489Z,3.70
2024-04-18T22:06:34.247Z,3.40
2024-04-18T22:09:01.852Z,3.80
2024-04-18T22:11:29.610Z,3.80
2024-04-18T22:13:57.258Z,4.70
2024-04-18T22:16:24.647Z,3.80
2024-04-18T22:18:52.356Z,4.00
2024-04-18T22:21:19.951Z,4.00
2024-04-18T22:23:50.011Z,3.70
2024-04-18T22:26:19.340Z,3.90
2024-04-18T22:28:46.852Z,4.00
2024-04-18T22:31:14.289Z,3.40
2024-04-18T22:33:41.814Z,3.90
2024-04-18T22:36:09.315Z,3.70
2024-04-18T22:38:37.028Z,3.30
2024-04-18T22:41:04.670Z,4.00
2024-04-18T22:43:32.176Z,3.80
2024-04-18T22:45:59.588Z,3.60
2024-04-18T22:48:27.310Z,3.90
2024-04-18T22:50:55.062Z,3.70
2024-04-18T22:53:22.608Z,4.70
2024-04-18T22:55:56.628Z,4.00
2024-04-18T22:58:24.271Z,3.80
2024-04-18T23:00:51.866Z,3.60
2024-04-18T23:03:19.505Z,3.80
2024-04-18T23:05:47.431Z,4.20
2024-04-18T23:08:18.002Z,3.80
2024-04-18T23:10:46.747Z,4.10
2024-04-18T23:13:15.527Z,4.30
2024-04-18T23:15:43.211Z,4.00
2024-04-18T23:18:10.779Z,4.20
2024-04-18T23:20:38.368Z,3.70
2024-04-18T23:23:05.783Z,4.20
2024-04-18T23:25:33.256Z,4.20
2024-04-18T23:28:00.812Z,4.30
2024-04-18T23:30:28.447Z,4.00
2024-04-18T23:32:56.351Z,4.40
2024-04-18T23:35:23.919Z,4.00
2024-04-18T23:37:51.420Z,4.50
2024-04-18T23:40:18.833Z,3.90
2024-04-18T23:42:46.528Z,5.10
2024-04-18T23:45:16.575Z,4.90
2024-04-18T23:47:46.291Z,4.60
2024-04-18T23:50:15.176Z,4.60
2024-04-18T23:52:42.660Z,5.20
2024-04-18T23:55:10.251Z,5.30
2024-04-18T23:57:37.807Z,6.50
